Impacts TAF Board
For situational awareness. Not to be used for flight planning purposes.
IDs:

KMEI - Meridian/Key Fld, MS, US

Issued at 0647 UTC 24 Jan 2019
Updated at 0701 UTC 24 Jan 2019
Potential Impact None Slight Moderate High
Time0658Z 24/07Z 24/08Z 24/09Z 24/10Z 24/11Z 24/12Z 24/13Z 24/14Z 24/15Z 24/16Z 24/17Z 24/18Z 24/19Z>>
Type OBS PRVL PRVL PRVL PRVL PRVL PRVL PRVL PRVL PRVL PRVL PRVL PRVL PRVL
VIS 10 >6 >6 >6 >6 >6 >6 >6 >6 >6 >6 >6 >6 >6
CIG 15 10 10 10 10 10 10 10 10 -- -- -- -- --
Cover OVC OVC OVC OVC OVC OVC OVC OVC OVC SKC SKC SKC SKC SKC
FltCat MVFR MVFR MVFR MVFR MVFR MVFR MVFR MVFR MVFR VFR VFR VFR VFR VFR
WX -- -- -- -- -- -- -- -- -- -- -- -- -- --
WDir 320 300 300 300 300 300 300 300 300 330 330 330 330 330
WSpd 14 12 12 12 12 12 12 12 12 9 9 9 9 9
WGst 20 -- -- -- -- -- -- -- -- -- -- -- -- --
Raw TAF
KMEI 240647Z 2407/2506 30012KT P6SM BKN010 OVC015
  FM241500 33009KT P6SM SKC
  FM250300 26003KT P6SM FEW250


Raw METAR
KMEI 240658Z AUTO 32014G20KT 10SM OVC015 03/M01 A2997 RMK AO2 SLP148 I1000 T00281006 TSNO
KMEI 240656Z AUTO 32011G19KT 10SM OVC015 03/M01 A2997 RMK AO2 I1000 TSNO
KMEI 240635Z AUTO 31013G19KT 10SM BKN011 OVC015 03/01 A2995 RMK AO2 CIG 007V013 I1000 T00280006 TSNO
KMEI 240558Z AUTO 29011KT 6SM BR OVC006 03/02 A2995 RMK AO2 SLP142 60002 I1000 I6/// T00330017 10128 20033 401830033 50009 TSNO
KMEI 240513Z AUTO 30011KT 8SM BKN008 OVC014 03/02 A2996 RMK AO2 I1000 T00330017 TSNO
KMEI 240458Z AUTO 31012G20KT 10SM OVC012 04/01 A2996 RMK AO2 SLP144 I1000 T00390011 TSNO
KMEI 240358Z 29009G15KT 10SM OVC006 04/03 A2992 RMK AO2 SLP131 I1000 T00440028

METAR Board
Radar Display
Forecast Discussion
For situational awareness. Not to be used for flight planning purposes.